Terminal Aerodrome Forecast
Issued by NWS Topeka, KS

Home | Current Version | Previous Version | Text Only | Print | Product List | Glossary On
Versions: 1 2 3 4 5 6 7 8 9 10 11 12 13 14 15 16 17 18 19
000
FTUS43 KTOP 241503 AAC
TAFTOP
TAF AMD
KTOP 241503Z 2415/2512 30012KT 6SM BR SCT008 OVC009
      TEMPO 2415/2417 3SM BR OVC005
     FM241900 30018G27KT P6SM VCSH BKN015
     FM250000 32014G24KT P6SM OVC025
     FM250200 32012G22KT P6SM OVC035
     FM250800 32012KT P6SM SCT100=

USA.gov is the U.S. government's official web portal to all federal, state and local government web resources and services.